sensor_id;sensor_type;location;lat;lon;timestamp;pressure;altitude;pressure_sealevel;temperature;humidity
56719;BME280;42597;40.636;0.278;2023-03-21T00:01:28;97531.59;;;16.23;55.29
56719;BME280;42597;40.636;0.278;2023-03-21T00:03:54;97539.00;;;15.33;51.08
56719;BME280;42597;40.636;0.278;2023-03-21T00:06:19;97522.56;;;14.76;52.47
56719;BME280;42597;40.636;0.278;2023-03-21T00:08:45;97515.34;;;16.34;62.39
56719;BME280;42597;40.636;0.278;2023-03-21T00:11:11;97519.53;;;15.91;56.63
56719;BME280;42597;40.636;0.278;2023-03-21T00:13:38;97516.97;;;15.71;60.05
56719;BME280;42597;40.636;0.278;2023-03-21T00:18:34;97517.78;;;15.19;60.13
56719;BME280;42597;40.636;0.278;2023-03-21T00:21:04;97522.94;;;15.81;60.27
56719;BME280;42597;40.636;0.278;2023-03-21T00:23:31;97518.28;;;16.18;60.85
56719;BME280;42597;40.636;0.278;2023-03-21T00:25:58;97517.59;;;15.35;57.69
56719;BME280;42597;40.636;0.278;2023-03-21T00:28:24;97519.13;;;16.63;60.74
56719;BME280;42597;40.636;0.278;2023-03-21T00:30:50;97519.75;;;16.87;60.75
56719;BME280;42597;40.636;0.278;2023-03-21T00:33:16;97512.44;;;15.83;54.42
56719;BME280;42597;40.636;0.278;2023-03-21T00:35:45;97518.88;;;14.88;55.45
56719;BME280;42597;40.636;0.278;2023-03-21T00:38:13;97523.44;;;15.63;60.04
56719;BME280;42597;40.636;0.278;2023-03-21T00:40:38;97529.75;;;14.45;54.03
56719;BME280;42597;40.636;0.278;2023-03-21T00:43:04;97522.63;;;14.37;58.24
56719;BME280;42597;40.636;0.278;2023-03-21T00:45:30;97516.88;;;15.11;62.15
56719;BME280;42597;40.636;0.278;2023-03-21T00:47:56;97528.53;;;14.62;60.20
56719;BME280;42597;40.636;0.278;2023-03-21T00:50:22;97526.25;;;14.64;58.38
56719;BME280;42597;40.636;0.278;2023-03-21T00:52:48;97526.13;;;14.38;59.26
56719;BME280;42597;40.636;0.278;2023-03-21T00:55:15;97522.88;;;14.09;57.48
56719;BME280;42597;40.636;0.278;2023-03-21T00:57:41;97531.22;;;13.42;57.94
56719;BME280;42597;40.636;0.278;2023-03-21T01:00:09;97527.28;;;14.37;63.87
56719;BME280;42597;40.636;0.278;2023-03-21T01:02:36;97518.97;;;15.21;65.60
56719;BME280;42597;40.636;0.278;2023-03-21T01:05:03;97505.59;;;15.36;64.36
56719;BME280;42597;40.636;0.278;2023-03-21T01:07:29;97512.31;;;15.19;65.11
56719;BME280;42597;40.636;0.278;2023-03-21T01:09:55;97506.94;;;15.22;61.69
56719;BME280;42597;40.636;0.278;2023-03-21T01:12:20;97514.53;;;14.60;55.20
56719;BME280;42597;40.636;0.278;2023-03-21T01:14:46;97500.97;;;13.24;57.85
56719;BME280;42597;40.636;0.278;2023-03-21T01:17:11;97501.75;;;13.09;58.32
56719;BME280;42597;40.636;0.278;2023-03-21T01:19:37;97496.13;;;12.82;59.16
56719;BME280;42597;40.636;0.278;2023-03-21T01:22:03;97495.84;;;13.39;57.36
56719;BME280;42597;40.636;0.278;2023-03-21T01:24:29;97500.31;;;13.47;56.54
56719;BME280;42597;40.636;0.278;2023-03-21T01:26:54;97507.28;;;13.28;56.77
56719;BME280;42597;40.636;0.278;2023-03-21T01:29:20;97501.44;;;12.95;58.75
56719;BME280;42597;40.636;0.278;2023-03-21T01:31:45;97490.63;;;13.14;57.49
56719;BME280;42597;40.636;0.278;2023-03-21T01:34:11;97486.00;;;15.87;66.06
56719;BME280;42597;40.636;0.278;2023-03-21T01:36:36;97470.22;;;16.85;61.62
56719;BME280;42597;40.636;0.278;2023-03-21T01:39:03;97466.13;;;17.16;60.45
56719;BME280;42597;40.636;0.278;2023-03-21T01:41:34;97465.50;;;17.37;60.11
56719;BME280;42597;40.636;0.278;2023-03-21T01:44:00;97458.53;;;17.50;59.61
56719;BME280;42597;40.636;0.278;2023-03-21T01:49:41;97456.66;;;17.72;58.40
56719;BME280;42597;40.636;0.278;2023-03-21T01:52:16;97449.69;;;17.78;58.09
56719;BME280;42597;40.636;0.278;2023-03-21T01:54:43;97451.25;;;17.83;57.09
56719;BME280;42597;40.636;0.278;2023-03-21T01:57:16;97439.94;;;17.88;57.27
56719;BME280;42597;40.636;0.278;2023-03-21T01:59:48;97444.66;;;17.91;56.94
56719;BME280;42597;40.636;0.278;2023-03-21T02:02:21;97438.41;;;17.94;56.50
56719;BME280;42597;40.636;0.278;2023-03-21T02:04:48;97436.06;;;17.96;56.49
56719;BME280;42597;40.636;0.278;2023-03-21T02:07:31;97437.66;;;17.97;56.65
56719;BME280;42597;40.636;0.278;2023-03-21T02:10:02;97431.78;;;18.02;56.14
56719;BME280;42597;40.636;0.278;2023-03-21T02:12:30;97419.69;;;18.03;55.78
56719;BME280;42597;40.636;0.278;2023-03-21T02:14:56;97429.06;;;18.02;55.91
56719;BME280;42597;40.636;0.278;2023-03-21T02:17:58;97422.81;;;18.05;55.74
56719;BME280;42597;40.636;0.278;2023-03-21T02:21:06;97426.72;;;18.04;55.41
56719;BME280;42597;40.636;0.278;2023-03-21T02:26:56;97413.81;;;18.05;55.08
56719;BME280;42597;40.636;0.278;2023-03-21T02:37:04;97410.72;;;18.06;54.04
56719;BME280;42597;40.636;0.278;2023-03-21T02:42:19;97409.13;;;18.09;53.98
56719;BME280;42597;40.636;0.278;2023-03-21T02:44:56;97404.84;;;18.08;54.36
56719;BME280;42597;40.636;0.278;2023-03-21T02:47:57;97404.84;;;18.11;53.80
56719;BME280;42597;40.636;0.278;2023-03-21T02:53:03;97402.88;;;18.12;53.61
56719;BME280;42597;40.636;0.278;2023-03-21T02:55:32;97404.47;;;18.09;53.66
56719;BME280;42597;40.636;0.278;2023-03-21T02:57:59;97407.59;;;18.11;53.70
56719;BME280;42597;40.636;0.278;2023-03-21T03:00:29;97397.03;;;18.10;53.44
56719;BME280;42597;40.636;0.278;2023-03-21T03:02:55;97403.66;;;18.12;53.53
56719;BME280;42597;40.636;0.278;2023-03-21T03:05:27;97418.13;;;18.13;53.61
56719;BME280;42597;40.636;0.278;2023-03-21T03:19:29;97401.72;;;18.13;53.33
56719;BME280;42597;40.636;0.278;2023-03-21T03:21:59;97399.38;;;18.08;53.29
56719;BME280;42597;40.636;0.278;2023-03-21T03:27:02;97396.25;;;18.09;52.99
56719;BME280;42597;40.636;0.278;2023-03-21T03:29:32;97393.53;;;18.09;52.88
56719;BME280;42597;40.636;0.278;2023-03-21T03:32:15;97396.25;;;18.09;53.00
56719;BME280;42597;40.636;0.278;2023-03-21T03:34:45;97392.34;;;18.10;52.06
56719;BME280;42597;40.636;0.278;2023-03-21T03:37:16;97386.88;;;18.10;52.56
56719;BME280;42597;40.636;0.278;2023-03-21T03:39:53;97381.81;;;18.05;52.85
56719;BME280;42597;40.636;0.278;2023-03-21T03:42:34;97380.66;;;18.13;52.58
56719;BME280;42597;40.636;0.278;2023-03-21T03:45:02;97372.78;;;18.05;52.69
56719;BME280;42597;40.636;0.278;2023-03-21T03:47:37;97371.25;;;18.07;52.77
56719;BME280;42597;40.636;0.278;2023-03-21T03:50:11;97372.41;;;18.03;52.91
56719;BME280;42597;40.636;0.278;2023-03-21T03:52:51;97359.94;;;18.05;52.42
56719;BME280;42597;40.636;0.278;2023-03-21T03:55:19;97360.31;;;18.00;52.75
56719;BME280;42597;40.636;0.278;2023-03-21T03:57:47;97359.16;;;18.01;52.44
56719;BME280;42597;40.636;0.278;2023-03-21T04:00:14;97362.63;;;17.84;53.24
56719;BME280;42597;40.636;0.278;2023-03-21T04:02:41;97359.91;;;17.98;52.61
56719;BME280;42597;40.636;0.278;2023-03-21T04:05:07;97373.59;;;17.98;52.39
56719;BME280;42597;40.636;0.278;2023-03-21T04:07:33;97370.06;;;18.05;52.17
56719;BME280;42597;40.636;0.278;2023-03-21T04:09:59;97369.28;;;18.04;51.81
56719;BME280;42597;40.636;0.278;2023-03-21T04:12:24;97375.94;;;18.03;52.38
56719;BME280;42597;40.636;0.278;2023-03-21T04:14:50;97365.75;;;18.00;51.87
56719;BME280;42597;40.636;0.278;2023-03-21T04:17:17;97373.19;;;18.03;51.99
56719;BME280;42597;40.636;0.278;2023-03-21T04:19:43;97366.19;;;18.02;52.12
56719;BME280;42597;40.636;0.278;2023-03-21T04:22:10;97361.84;;;18.05;52.07
56719;BME280;42597;40.636;0.278;2023-03-21T04:24:37;97368.50;;;18.04;51.95
56719;BME280;42597;40.636;0.278;2023-03-21T04:27:03;97381.03;;;18.01;51.73
56719;BME280;42597;40.636;0.278;2023-03-21T04:29:30;97377.50;;;18.04;51.96
56719;BME280;42597;40.636;0.278;2023-03-21T04:31:56;97376.72;;;18.04;51.91
56719;BME280;42597;40.636;0.278;2023-03-21T04:34:22;97370.47;;;18.03;51.85
56719;BME280;42597;40.636;0.278;2023-03-21T04:36:50;97360.72;;;18.02;51.99
56719;BME280;42597;40.636;0.278;2023-03-21T04:39:18;97365.00;;;18.03;51.79
56719;BME280;42597;40.636;0.278;2023-03-21T04:41:45;97372.03;;;18.04;51.72
56719;BME280;42597;40.636;0.278;2023-03-21T04:44:13;97372.44;;;18.06;51.69
56719;BME280;42597;40.636;0.278;2023-03-21T04:46:40;97373.59;;;17.98;51.87
56719;BME280;42597;40.636;0.278;2023-03-21T04:49:06;97366.16;;;17.95;51.91
56719;BME280;42597;40.636;0.278;2023-03-21T04:51:32;97366.56;;;18.04;51.59
56719;BME280;42597;40.636;0.278;2023-03-21T04:53:58;97374.38;;;18.06;51.57
56719;BME280;42597;40.636;0.278;2023-03-21T04:56:25;97369.69;;;17.99;51.66
56719;BME280;42597;40.636;0.278;2023-03-21T04:59:00;97368.91;;;17.95;51.86
56719;BME280;42597;40.636;0.278;2023-03-21T05:01:26;97372.81;;;18.01;51.89
56719;BME280;42597;40.636;0.278;2023-03-21T05:03:58;97377.13;;;18.02;51.65
56719;BME280;42597;40.636;0.278;2023-03-21T05:06:24;97372.03;;;17.97;51.66
56719;BME280;42597;40.636;0.278;2023-03-21T05:08:50;97377.50;;;17.97;51.85
56719;BME280;42597;40.636;0.278;2023-03-21T05:11:16;97375.91;;;17.96;51.71
56719;BME280;42597;40.636;0.278;2023-03-21T05:13:42;97366.56;;;17.97;51.53
56719;BME280;42597;40.636;0.278;2023-03-21T05:16:07;97365.75;;;18.00;51.22
56719;BME280;42597;40.636;0.278;2023-03-21T05:18:33;97363.44;;;17.98;51.28
56719;BME280;42597;40.636;0.278;2023-03-21T05:20:59;97375.91;;;17.96;51.47
56719;BME280;42597;40.636;0.278;2023-03-21T05:23:24;97372.41;;;17.95;51.74
56719;BME280;42597;40.636;0.278;2023-03-21T05:25:50;97375.91;;;17.96;51.61
56719;BME280;42597;40.636;0.278;2023-03-21T05:28:16;97378.28;;;17.94;51.59
56719;BME280;42597;40.636;0.278;2023-03-21T05:30:43;97380.59;;;17.92;51.69
56719;BME280;42597;40.636;0.278;2023-03-21T05:33:10;97379.81;;;17.95;51.50
56719;BME280;42597;40.636;0.278;2023-03-21T05:35:36;97378.66;;;17.96;51.42
56719;BME280;42597;40.636;0.278;2023-03-21T05:38:01;97374.38;;;17.95;51.52
56719;BME280;42597;40.636;0.278;2023-03-21T05:40:27;97382.16;;;17.96;51.50
56719;BME280;42597;40.636;0.278;2023-03-21T05:42:52;97386.84;;;17.92;51.50
56719;BME280;42597;40.636;0.278;2023-03-21T05:45:18;97375.13;;;17.92;51.62
56719;BME280;42597;40.636;0.278;2023-03-21T05:47:44;97370.44;;;17.89;51.41
56719;BME280;42597;40.636;0.278;2023-03-21T05:50:10;97366.94;;;17.95;51.58
56719;BME280;42597;40.636;0.278;2023-03-21T05:52:37;97361.88;;;17.94;51.21
56719;BME280;42597;40.636;0.278;2023-03-21T05:55:04;97358.34;;;17.90;51.48
56719;BME280;42597;40.636;0.278;2023-03-21T05:57:30;97368.09;;;17.91;51.36
56719;BME280;42597;40.636;0.278;2023-03-21T05:59:59;97372.00;;;17.90;51.49
56719;BME280;42597;40.636;0.278;2023-03-21T06:02:26;97372.41;;;17.92;51.38
56719;BME280;42597;40.636;0.278;2023-03-21T06:04:51;97373.16;;;17.89;51.53
56719;BME280;42597;40.636;0.278;2023-03-21T06:07:17;97380.59;;;17.92;51.20
56719;BME280;42597;40.636;0.278;2023-03-21T06:09:43;97388.00;;;17.81;51.59
56719;BME280;42597;40.636;0.278;2023-03-21T06:12:10;97383.25;;;17.70;51.35
56719;BME280;42597;40.636;0.278;2023-03-21T06:14:36;97389.94;;;17.80;51.51
56719;BME280;42597;40.636;0.278;2023-03-21T06:17:02;97393.88;;;17.83;51.35
56719;BME280;42597;40.636;0.278;2023-03-21T06:19:27;97396.22;;;17.88;50.79
56719;BME280;42597;40.636;0.278;2023-03-21T06:21:53;97391.50;;;17.85;50.92
56719;BME280;42597;40.636;0.278;2023-03-21T06:24:18;97399.34;;;17.83;51.14
56719;BME280;42597;40.636;0.278;2023-03-21T06:26:44;97400.88;;;17.84;51.01
56719;BME280;42597;40.636;0.278;2023-03-21T06:29:10;97397.38;;;17.87;51.02
56719;BME280;42597;40.636;0.278;2023-03-21T06:31:36;97402.09;;;17.90;50.75
56719;BME280;42597;40.636;0.278;2023-03-21T06:34:02;97403.22;;;17.89;50.97
56719;BME280;42597;40.636;0.278;2023-03-21T06:36:27;97404.03;;;17.89;50.57
56719;BME280;42597;40.636;0.278;2023-03-21T06:38:53;97409.50;;;17.86;50.69
56719;BME280;42597;40.636;0.278;2023-03-21T06:41:18;97412.59;;;17.84;50.58
56719;BME280;42597;40.636;0.278;2023-03-21T06:43:44;97404.03;;;17.93;50.58
56719;BME280;42597;40.636;0.278;2023-03-21T06:46:10;97400.13;;;17.94;50.19
56719;BME280;42597;40.636;0.278;2023-03-21T06:48:36;97414.97;;;17.96;50.44
56719;BME280;42597;40.636;0.278;2023-03-21T06:51:03;97411.88;;;17.98;50.33
56719;BME280;42597;40.636;0.278;2023-03-21T06:53:29;97415.78;;;17.93;50.25
56719;BME280;42597;40.636;0.278;2023-03-21T06:55:57;97423.56;;;17.95;50.25
56719;BME280;42597;40.636;0.278;2023-03-21T06:58:23;97418.88;;;17.95;50.30
56719;BME280;42597;40.636;0.278;2023-03-21T07:00:48;97418.88;;;17.92;50.53
56719;BME280;42597;40.636;0.278;2023-03-21T07:03:15;97414.97;;;17.93;50.11
56719;BME280;42597;40.636;0.278;2023-03-21T07:05:41;97418.88;;;17.92;50.05
56719;BME280;42597;40.636;0.278;2023-03-21T07:08:07;97419.66;;;17.92;50.29
56719;BME280;42597;40.636;0.278;2023-03-21T07:10:42;97418.88;;;17.95;50.15
56719;BME280;42597;40.636;0.278;2023-03-21T07:13:08;97417.69;;;17.93;50.10
56719;BME280;42597;40.636;0.278;2023-03-21T07:15:33;97420.41;;;17.79;50.50
56719;BME280;42597;40.636;0.278;2023-03-21T07:18:06;97418.94;;;16.60;53.68
56719;BME280;42597;40.636;0.278;2023-03-21T07:20:32;97417.69;;;17.86;50.35
56719;BME280;42597;40.636;0.278;2023-03-21T07:22:58;97409.50;;;17.96;49.78
56719;BME280;42597;40.636;0.278;2023-03-21T07:25:25;97415.78;;;17.97;49.62
56719;BME280;42597;40.636;0.278;2023-03-21T07:27:51;97422.38;;;17.96;49.47
56719;BME280;42597;40.636;0.278;2023-03-21T07:30:17;97425.91;;;17.93;49.69
56719;BME280;42597;40.636;0.278;2023-03-21T07:32:42;97422.00;;;17.94;49.33
56719;BME280;42597;40.636;0.278;2023-03-21T07:35:11;97423.09;;;16.91;49.45
56719;BME280;42597;40.636;0.278;2023-03-21T07:37:38;97424.88;;;16.21;53.09
56719;BME280;42597;40.636;0.278;2023-03-21T07:40:04;97431.72;;;16.04;54.41
56719;BME280;42597;40.636;0.278;2023-03-21T07:42:35;97419.88;;;15.90;55.50
56719;BME280;42597;40.636;0.278;2023-03-21T07:45:01;97434.81;;;14.56;57.43
56719;BME280;42597;40.636;0.278;2023-03-21T07:47:29;97439.81;;;14.08;59.86
56719;BME280;42597;40.636;0.278;2023-03-21T07:49:55;97441.00;;;13.88;61.99
56719;BME280;42597;40.636;0.278;2023-03-21T07:52:20;97437.13;;;13.89;62.37
56719;BME280;42597;40.636;0.278;2023-03-21T07:54:46;97439.03;;;14.07;61.66
56719;BME280;42597;40.636;0.278;2023-03-21T07:57:11;97445.97;;;14.05;62.20
56719;BME280;42597;40.636;0.278;2023-03-21T07:59:37;97447.31;;;14.38;60.72
56719;BME280;42597;40.636;0.278;2023-03-21T08:02:02;97452.19;;;14.05;63.01
56719;BME280;42597;40.636;0.278;2023-03-21T08:04:28;97450.31;;;14.32;62.03
56719;BME280;42597;40.636;0.278;2023-03-21T08:06:53;97440.19;;;14.29;62.84
56719;BME280;42597;40.636;0.278;2023-03-21T08:09:19;97446.63;;;14.21;64.29
56719;BME280;42597;40.636;0.278;2023-03-21T08:11:45;97443.19;;;14.24;63.87
56719;BME280;42597;40.636;0.278;2023-03-21T08:14:10;97440.91;;;14.26;63.90
56719;BME280;42597;40.636;0.278;2023-03-21T08:16:36;97437.66;;;14.40;64.82
56719;BME280;42597;40.636;0.278;2023-03-21T08:19:01;97449.31;;;14.41;67.47
56719;BME280;42597;40.636;0.278;2023-03-21T08:21:27;97446.81;;;14.55;68.98
56719;BME280;42597;40.636;0.278;2023-03-21T08:23:53;97444.00;;;14.48;71.78
56719;BME280;42597;40.636;0.278;2023-03-21T08:26:18;97445.88;;;14.44;74.49
56719;BME280;42597;40.636;0.278;2023-03-21T08:28:45;97444.59;;;14.38;76.41
56719;BME280;42597;40.636;0.278;2023-03-21T08:31:12;97444.28;;;14.43;77.26
56719;BME280;42597;40.636;0.278;2023-03-21T08:33:38;97444.75;;;14.25;79.12
56719;BME280;42597;40.636;0.278;2023-03-21T08:36:04;97446.09;;;14.58;78.00
56719;BME280;42597;40.636;0.278;2023-03-21T08:38:30;97442.19;;;14.55;79.49
56719;BME280;42597;40.636;0.278;2023-03-21T08:41:01;97440.84;;;14.46;80.29
56719;BME280;42597;40.636;0.278;2023-03-21T08:43:27;97447.44;;;14.45;82.29
56719;BME280;42597;40.636;0.278;2023-03-21T08:45:53;97453.94;;;14.63;81.75
56719;BME280;42597;40.636;0.278;2023-03-21T08:48:20;97453.59;;;14.42;83.29
56719;BME280;42597;40.636;0.278;2023-03-21T08:50:45;97453.06;;;14.55;83.14
56719;BME280;42597;40.636;0.278;2023-03-21T08:53:11;97460.53;;;14.85;82.46
56719;BME280;42597;40.636;0.278;2023-03-21T08:55:36;97453.28;;;14.47;83.41
56719;BME280;42597;40.636;0.278;2023-03-21T08:58:02;97458.41;;;14.75;80.75
56719;BME280;42597;40.636;0.278;2023-03-21T09:00:28;97450.22;;;14.71;82.10
56719;BME280;42597;40.636;0.278;2023-03-21T09:02:55;97455.28;;;14.50;84.37
56719;BME280;42597;40.636;0.278;2023-03-21T09:05:23;97458.78;;;14.73;82.89
56719;BME280;42597;40.636;0.278;2023-03-21T09:07:51;97459.88;;;14.46;84.28
56719;BME280;42597;40.636;0.278;2023-03-21T09:10:19;97465.66;;;14.67;84.61
56719;BME280;42597;40.636;0.278;2023-03-21T09:12:45;97472.25;;;14.66;84.44
56719;BME280;42597;40.636;0.278;2023-03-21T09:15:11;97465.50;;;14.79;83.50
56719;BME280;42597;40.636;0.278;2023-03-21T09:17:38;97453.81;;;14.79;84.04
56719;BME280;42597;40.636;0.278;2023-03-21T09:20:11;97453.56;;;14.88;83.89
56719;BME280;42597;40.636;0.278;2023-03-21T09:22:46;97455.97;;;14.93;83.96
56719;BME280;42597;40.636;0.278;2023-03-21T09:25:13;97449.81;;;14.96;83.24
56719;BME280;42597;40.636;0.278;2023-03-21T09:27:39;97445.88;;;14.93;83.83
56719;BME280;42597;40.636;0.278;2023-03-21T09:30:07;97453.38;;;15.00;84.19
56719;BME280;42597;40.636;0.278;2023-03-21T09:32:34;97448.81;;;15.38;82.80
56719;BME280;42597;40.636;0.278;2023-03-21T09:34:59;97452.59;;;15.29;83.58
56719;BME280;42597;40.636;0.278;2023-03-21T09:37:25;97443.09;;;15.16;83.13
56719;BME280;42597;40.636;0.278;2023-03-21T09:39:51;97443.13;;;15.50;80.05
56719;BME280;42597;40.636;0.278;2023-03-21T09:42:30;97449.59;;;15.08;83.34
56719;BME280;42597;40.636;0.278;2023-03-21T09:47:45;97440.16;;;15.28;82.09
56719;BME280;42597;40.636;0.278;2023-03-21T09:50:32;97445.59;;;15.28;81.41
56719;BME280;42597;40.636;0.278;2023-03-21T09:53:03;97450.66;;;15.60;81.00
56719;BME280;42597;40.636;0.278;2023-03-21T09:55:37;97447.63;;;15.65;78.75
56719;BME280;42597;40.636;0.278;2023-03-21T10:00:41;97433.03;;;15.50;78.11
56719;BME280;42597;40.636;0.278;2023-03-21T10:03:19;97436.88;;;15.79;77.01
56719;BME280;42597;40.636;0.278;2023-03-21T10:05:49;97439.84;;;15.67;77.26
56719;BME280;42597;40.636;0.278;2023-03-21T10:08:20;97438.34;;;15.70;78.38
56719;BME280;42597;40.636;0.278;2023-03-21T10:10:50;97430.09;;;16.00;75.75
56719;BME280;42597;40.636;0.278;2023-03-21T10:13:24;97427.88;;;15.75;75.50
56719;BME280;42597;40.636;0.278;2023-03-21T10:15:55;97428.38;;;16.22;74.04
56719;BME280;42597;40.636;0.278;2023-03-21T10:18:23;97431.19;;;16.33;73.02
56719;BME280;42597;40.636;0.278;2023-03-21T10:20:51;97425.72;;;16.29;73.23
56719;BME280;42597;40.636;0.278;2023-03-21T10:23:19;97423.38;;;16.31;73.59
56719;BME280;42597;40.636;0.278;2023-03-21T10:25:49;97424.50;;;16.26;73.73
56719;BME280;42597;40.636;0.278;2023-03-21T10:28:22;97425.69;;;16.25;71.82
56719;BME280;42597;40.636;0.278;2023-03-21T10:30:55;97420.22;;;16.25;71.21
56719;BME280;42597;40.636;0.278;2023-03-21T10:33:24;97420.28;;;16.33;70.90
56719;BME280;42597;40.636;0.278;2023-03-21T10:35:53;97427.03;;;16.46;70.26
56719;BME280;42597;40.636;0.278;2023-03-21T10:38:23;97422.03;;;16.55;71.61
56719;BME280;42597;40.636;0.278;2023-03-21T10:40:48;97422.06;;;16.59;71.25
56719;BME280;42597;40.636;0.278;2023-03-21T10:45:53;97427.41;;;16.48;69.39
56719;BME280;42597;40.636;0.278;2023-03-21T10:48:20;97420.75;;;16.90;66.67
56719;BME280;42597;40.636;0.278;2023-03-21T10:50:48;97423.41;;;16.83;67.96
56719;BME280;42597;40.636;0.278;2023-03-21T10:53:26;97421.66;;;16.60;69.65
56719;BME280;42597;40.636;0.278;2023-03-21T10:55:56;97418.22;;;16.67;69.23
56719;BME280;42597;40.636;0.278;2023-03-21T10:58:29;97425.31;;;16.75;67.53
56719;BME280;42597;40.636;0.278;2023-03-21T11:01:02;97423.00;;;16.77;67.97
56719;BME280;42597;40.636;0.278;2023-03-21T11:03:39;97421.09;;;16.88;66.60
56719;BME280;42597;40.636;0.278;2023-03-21T11:06:38;97413.81;;;17.07;65.96
56719;BME280;42597;40.636;0.278;2023-03-21T11:09:16;97421.88;;;16.85;66.03
56719;BME280;42597;40.636;0.278;2023-03-21T11:11:51;97419.22;;;16.96;65.88
56719;BME280;42597;40.636;0.278;2023-03-21T11:14:33;97407.47;;;16.85;65.66
56719;BME280;42597;40.636;0.278;2023-03-21T11:17:00;97411.75;;;16.86;64.93
56719;BME280;42597;40.636;0.278;2023-03-21T11:19:32;97409.91;;;17.04;64.48
56719;BME280;42597;40.636;0.278;2023-03-21T11:22:05;97410.66;;;16.97;64.10
56719;BME280;42597;40.636;0.278;2023-03-21T11:24:32;97403.72;;;17.14;64.01
56719;BME280;42597;40.636;0.278;2023-03-21T11:27:05;97396.72;;;17.13;63.29
56719;BME280;42597;40.636;0.278;2023-03-21T11:29:36;97408.44;;;17.17;63.64
56719;BME280;42597;40.636;0.278;2023-03-21T11:32:20;97407.28;;;17.22;62.83
56719;BME280;42597;40.636;0.278;2023-03-21T11:34:49;97393.56;;;17.11;62.23
56719;BME280;42597;40.636;0.278;2023-03-21T11:37:20;97383.34;;;16.94;62.62
56719;BME280;42597;40.636;0.278;2023-03-21T11:39:54;97384.34;;;17.37;62.09
56719;BME280;42597;40.636;0.278;2023-03-21T11:42:32;97389.78;;;17.37;63.26
56719;BME280;42597;40.636;0.278;2023-03-21T11:45:25;97378.13;;;17.47;62.14
56719;BME280;42597;40.636;0.278;2023-03-21T11:47:55;97385.09;;;17.34;61.66
56719;BME280;42597;40.636;0.278;2023-03-21T11:50:32;97367.16;;;17.33;61.30
56719;BME280;42597;40.636;0.278;2023-03-21T11:56:24;97378.88;;;17.44;61.91
56719;BME280;42597;40.636;0.278;2023-03-21T12:06:51;97355.88;;;17.42;63.19
56719;BME280;42597;40.636;0.278;2023-03-21T12:17:31;97351.59;;;17.55;62.69
56719;BME280;42597;40.636;0.278;2023-03-21T12:23:48;97350.00;;;17.47;63.50
56719;BME280;42597;40.636;0.278;2023-03-21T12:25:51;97345.78;;;17.67;63.15
56719;BME280;42597;40.636;0.278;2023-03-21T12:31:08;97336.06;;;17.84;62.53
56719;BME280;42597;40.636;0.278;2023-03-21T12:41:33;97326.72;;;18.32;57.59
56719;BME280;42597;40.636;0.278;2023-03-21T12:44:02;97332.19;;;17.82;64.29
56719;BME280;42597;40.636;0.278;2023-03-21T12:49:23;97325.16;;;17.91;63.30
56719;BME280;42597;40.636;0.278;2023-03-21T12:52:00;97319.28;;;18.36;60.30
56719;BME280;42597;40.636;0.278;2023-03-21T12:54:38;97318.88;;;18.48;59.05
56719;BME280;42597;40.636;0.278;2023-03-21T12:57:20;97311.88;;;18.18;65.10
56719;BME280;42597;40.636;0.278;2023-03-21T13:00:15;97312.25;;;18.28;63.30
56719;BME280;42597;40.636;0.278;2023-03-21T13:05:30;97302.44;;;18.55;59.48
56719;BME280;42597;40.636;0.278;2023-03-21T13:10:59;97291.47;;;18.77;56.36
56719;BME280;42597;40.636;0.278;2023-03-21T13:13:43;97287.53;;;18.85;55.05
56719;BME280;42597;40.636;0.278;2023-03-21T13:16:25;97277.41;;;18.82;55.78
56719;BME280;42597;40.636;0.278;2023-03-21T13:24:27;97299.34;;;18.24;63.28
56719;BME280;42597;40.636;0.278;2023-03-21T13:27:05;97289.97;;;18.40;59.18
56719;BME280;42597;40.636;0.278;2023-03-21T13:34:53;97300.06;;;18.64;57.39
56719;BME280;42597;40.636;0.278;2023-03-21T13:37:31;97297.00;;;18.48;58.79
56719;BME280;42597;40.636;0.278;2023-03-21T13:40:01;97292.69;;;18.47;59.50
56719;BME280;42597;40.636;0.278;2023-03-21T13:42:34;97296.06;;;19.01;55.27
56719;BME280;42597;40.636;0.278;2023-03-21T13:45:05;97296.63;;;18.39;59.65
56719;BME280;42597;40.636;0.278;2023-03-21T13:47:38;97288.34;;;18.82;56.38
56719;BME280;42597;40.636;0.278;2023-03-21T13:55:40;97311.88;;;18.22;62.18
56719;BME280;42597;40.636;0.278;2023-03-21T13:58:38;97315.00;;;18.31;60.71
56719;BME280;42597;40.636;0.278;2023-03-21T14:04:18;97307.88;;;18.80;57.27
56719;BME280;42597;40.636;0.278;2023-03-21T14:06:54;97299.22;;;19.03;56.10
56719;BME280;42597;40.636;0.278;2023-03-21T14:09:38;97298.00;;;19.08;55.85
56719;BME280;42597;40.636;0.278;2023-03-21T14:12:15;97292.97;;;19.03;56.28
56719;BME280;42597;40.636;0.278;2023-03-21T14:14:48;97290.56;;;19.15;56.00
56719;BME280;42597;40.636;0.278;2023-03-21T14:17:35;97288.94;;;19.25;55.53
56719;BME280;42597;40.636;0.278;2023-03-21T14:20:24;97299.91;;;19.21;55.81
56719;BME280;42597;40.636;0.278;2023-03-21T14:22:50;97285.88;;;19.05;57.09
56719;BME280;42597;40.636;0.278;2023-03-21T14:25:18;97288.13;;;19.32;55.59
56719;BME280;42597;40.636;0.278;2023-03-21T14:27:52;97293.84;;;18.57;63.21
56719;BME280;42597;40.636;0.278;2023-03-21T14:30:28;97272.09;;;19.30;56.28
56719;BME280;42597;40.636;0.278;2023-03-21T14:32:59;97278.34;;;19.31;56.00
56719;BME280;42597;40.636;0.278;2023-03-21T14:35:30;97268.91;;;19.39;55.44
56719;BME280;42597;40.636;0.278;2023-03-21T14:38:03;97270.28;;;19.02;57.90
56719;BME280;42597;40.636;0.278;2023-03-21T14:40:29;97273.97;;;18.35;65.34
56719;BME280;42597;40.636;0.278;2023-03-21T14:42:54;97275.50;;;18.36;65.86
56719;BME280;42597;40.636;0.278;2023-03-21T14:45:25;97272.03;;;18.17;67.03
56719;BME280;42597;40.636;0.278;2023-03-21T14:48:00;97275.09;;;18.52;62.16
56719;BME280;42597;40.636;0.278;2023-03-21T14:50:48;97256.81;;;19.26;57.91
56719;BME280;42597;40.636;0.278;2023-03-21T14:53:38;97262.13;;;18.81;60.38
56719;BME280;42597;40.636;0.278;2023-03-21T14:56:08;97256.44;;;19.31;58.24
56719;BME280;42597;40.636;0.278;2023-03-21T14:58:39;97258.41;;;19.27;57.91